Time;durP1;ratioP1;P1;durP2;ratioP2;P2;SDS_P1;SDS_P2;PMS_P1;PMS_P2;Temp;Humidity;BMP_temperature;BMP_pressure;BME280_temperature;BME280_humidity;BME280_pressure;Samples;Min_cycle;Max_cycle;Signal;HPM_P1;HPM_P2
2023/10/30 00:00:38;;;;;;;13.20;9.00;;;;;;;11.38;72.02;99706.08;105873;1254;73268;-81
2023/10/30 00:03:06;;;;;;;13.90;9.30;;;;;;;11.37;72.23;99707.77;105931;1254;70085;-81
2023/10/30 00:05:33;;;;;;;14.60;8.20;;;;;;;11.35;72.21;99702.09;105974;1254;72755;-80
2023/10/30 00:08:01;;;;;;;16.80;9.70;;;;;;;11.42;72.13;99709.64;106706;1254;61714;-81
2023/10/30 00:10:28;;;;;;;12.70;8.80;;;;;;;11.48;71.93;99710.11;105982;1259;60499;-77
2023/10/30 00:12:56;;;;;;;14.10;9.00;;;;;;;11.45;71.85;99713.65;105910;1252;72596;-79
2023/10/30 00:15:23;;;;;;;12.20;9.20;;;;;;;11.40;71.84;99709.41;105994;1256;68918;-75
2023/10/30 00:17:50;;;;;;;11.60;8.90;;;;;;;11.37;71.98;99705.14;105991;1254;72681;-73
2023/10/30 00:20:18;;;;;;;16.80;9.00;;;;;;;11.34;72.16;99707.98;105980;1254;60495;-75
2023/10/30 00:22:46;;;;;;;14.30;9.30;;;;;;;11.33;72.36;99713.42;105874;1253;60543;-75
2023/10/30 00:25:13;;;;;;;12.60;9.00;;;;;;;11.39;72.09;99703.48;105789;1254;73919;-76
2023/10/30 00:27:41;;;;;;;14.20;9.00;;;;;;;11.40;72.05;99703.04;105834;1256;70065;-76
2023/10/30 00:30:09;;;;;;;13.40;8.70;;;;;;;11.35;72.03;99706.73;105905;1254;70539;-75
2023/10/30 00:32:37;;;;;;;12.50;8.70;;;;;;;11.32;72.26;99707.99;106368;1254;60415;-75
2023/10/30 00:35:05;;;;;;;14.70;9.00;;;;;;;11.28;72.31;99704.89;106228;1256;60532;-77
2023/10/30 00:37:33;;;;;;;15.20;9.60;;;;;;;11.25;72.43;99699.59;105980;1255;72587;-76
2023/10/30 00:40:00;;;;;;;16.80;9.20;;;;;;;11.29;72.57;99699.55;106010;1252;70498;-75
2023/10/30 00:42:28;;;;;;;14.60;9.60;;;;;;;11.33;72.27;99695.86;105903;1256;72828;-77
2023/10/30 00:44:57;;;;;;;12.40;8.70;;;;;;;11.30;72.20;99695.80;105978;1254;60577;-73
2023/10/30 00:47:24;;;;;;;14.70;8.70;;;;;;;11.26;72.31;99694.92;105940;1257;60345;-77
2023/10/30 00:49:51;;;;;;;14.00;9.40;;;;;;;11.20;72.43;99688.91;105933;1257;73847;-80
2023/10/30 00:52:19;;;;;;;15.20;9.10;;;;;;;11.16;72.57;99691.75;106147;1257;68813;-78
2023/10/30 00:54:46;;;;;;;12.40;9.30;;;;;;;11.12;72.86;99689.50;107186;1253;72739;-78
2023/10/30 00:57:14;;;;;;;14.20;9.40;;;;;;;11.18;72.74;99695.07;106987;1256;60297;-78
2023/10/30 00:59:41;;;;;;;15.60;9.70;;;;;;;11.20;72.36;99686.82;106021;1254;60322;-80
2023/10/30 01:02:09;;;;;;;13.60;9.60;;;;;;;11.17;72.30;99688.90;106120;1252;71657;-81
2023/10/30 01:04:37;;;;;;;17.10;9.30;;;;;;;11.13;72.51;99685.29;106104;1257;68926;-79
2023/10/30 01:07:05;;;;;;;16.00;9.60;;;;;;;11.08;72.75;99693.48;106072;1255;70717;-78
2023/10/30 01:09:32;;;;;;;11.50;8.50;;;;;;;11.05;72.94;99689.40;106031;1256;60480;-78
2023/10/30 01:12:00;;;;;;;15.90;9.00;;;;;;;11.12;72.90;99685.96;106128;1258;60335;-78
2023/10/30 01:14:27;;;;;;;16.20;9.50;;;;;;;11.14;72.68;99688.70;106879;1253;73975;-78
2023/10/30 01:16:56;;;;;;;13.90;8.70;;;;;;;11.10;72.80;99689.39;107375;1254;68502;-77
2023/10/30 01:19:24;;;;;;;13.00;9.20;;;;;;;11.05;73.08;99691.02;105970;1255;72667;-80
2023/10/30 01:21:51;;;;;;;14.00;9.80;;;;;;;11.00;73.01;99692.28;105891;1256;60411;-80
2023/10/30 01:24:18;;;;;;;14.90;8.70;;;;;;;10.94;73.15;99690.81;106006;1254;60520;-79
2023/10/30 01:26:47;;;;;;;13.60;7.90;;;;;;;10.96;73.16;99688.62;105712;1259;73703;-75
2023/10/30 01:29:15;;;;;;;13.80;8.70;;;;;;;11.03;72.92;99693.54;106017;1256;69312;-77
2023/10/30 01:31:42;;;;;;;12.10;8.50;;;;;;;11.00;72.88;99686.80;106085;1256;71653;-74
2023/10/30 01:34:10;;;;;;;14.90;9.20;;;;;;;10.95;72.99;99681.80;106044;1256;60603;-78
2023/10/30 01:36:37;;;;;;;13.70;9.70;;;;;;;10.92;73.28;99680.78;106011;1254;60491;-79
2023/10/30 01:39:05;;;;;;;13.60;8.20;;;;;;;10.89;73.34;99684.52;106015;1255;72562;-80
2023/10/30 01:41:32;;;;;;;12.10;8.10;;;;;;;10.95;73.32;99680.08;105925;1257;69047;-77
2023/10/30 01:44:00;;;;;;;12.60;8.70;;;;;;;11.00;73.00;99680.75;105892;1254;72527;-77
2023/10/30 01:46:27;;;;;;;14.40;9.60;;;;;;;10.96;72.91;99679.81;105907;1254;60545;-79
2023/10/30 01:48:55;;;;;;;13.70;9.20;;;;;;;10.92;73.21;99678.45;105790;1252;60530;-79
2023/10/30 01:51:22;;;;;;;17.30;9.40;;;;;;;10.88;73.09;99676.38;105956;1254;72635;-78
2023/10/30 01:53:49;;;;;;;13.50;9.50;;;;;;;10.85;73.41;99680.52;105929;1259;70288;-78
2023/10/30 01:56:17;;;;;;;14.50;8.00;;;;;;;10.82;73.42;99677.11;106078;1254;71392;-77
2023/10/30 01:58:44;;;;;;;13.10;8.70;;;;;;;10.89;73.31;99669.20;105885;1259;60694;-76
2023/10/30 02:01:12;;;;;;;12.80;9.00;;;;;;;10.92;73.21;99666.95;106389;1254;60469;-78
2023/10/30 02:03:40;;;;;;;13.40;8.90;;;;;;;10.87;73.33;99663.83;107206;1259;72890;-77
2023/10/30 02:06:07;;;;;;;12.10;9.00;;;;;;;10.82;73.42;99659.70;106391;1257;68829;-77
2023/10/30 02:08:35;;;;;;;15.30;8.80;;;;;;;10.79;73.33;99658.58;106074;1256;72631;-76
2023/10/30 02:11:03;;;;;;;16.20;8.70;;;;;;;10.76;73.44;99656.98;105912;1260;60555;-78
2023/10/30 02:13:30;;;;;;;14.00;8.70;;;;;;;10.79;73.49;99654.02;105911;1253;61986;-80
2023/10/30 02:15:58;;;;;;;14.80;9.00;;;;;;;10.85;73.26;99655.23;106026;1255;71875;-80
2023/10/30 02:18:25;;;;;;;13.60;9.00;;;;;;;10.81;73.35;99665.35;106087;1254;68670;-78
2023/10/30 02:20:53;;;;;;;14.20;9.00;;;;;;;10.77;73.37;99666.00;105985;1255;72761;-79
2023/10/30 02:23:20;;;;;;;15.80;9.50;;;;;;;10.71;73.66;99664.81;106262;1255;60536;-77
2023/10/30 02:25:48;;;;;;;12.50;8.50;;;;;;;10.68;73.78;99664.79;107965;1253;60335;-77
2023/10/30 02:28:16;;;;;;;16.60;8.70;;;;;;;10.74;73.57;99666.44;108135;1257;72544;-78
2023/10/30 02:30:43;;;;;;;13.90;8.20;;;;;;;10.73;73.71;99664.10;105825;1254;70309;-78
2023/10/30 02:33:11;;;;;;;12.10;8.20;;;;;;;10.68;73.69;99656.11;106008;1254;72513;-78
2023/10/30 02:35:38;;;;;;;11.50;8.50;;;;;;;10.63;73.97;99652.81;105963;1254;60533;-78
2023/10/30 02:38:06;;;;;;;11.40;7.80;;;;;;;10.58;74.21;99654.48;106224;1254;60437;-76
2023/10/30 02:40:33;;;;;;;15.20;8.90;;;;;;;10.62;74.19;99659.53;107585;1258;72578;-77
2023/10/30 02:43:00;;;;;;;12.60;7.70;;;;;;;10.64;73.93;99665.51;106848;1257;70546;-78
2023/10/30 02:45:28;;;;;;;20.50;11.90;;;;;;;10.57;74.41;99671.32;106475;1257;71401;-78
2023/10/30 02:47:55;;;;;;;14.30;9.90;;;;;;;10.52;74.28;99670.80;108103;1254;58768;-76
2023/10/30 02:50:23;;;;;;;15.40;9.00;;;;;;;10.48;74.75;99670.98;108415;1254;60328;-75
2023/10/30 02:52:50;;;;;;;13.20;8.60;;;;;;;10.51;74.59;99665.83;108372;1254;72711;-77
2023/10/30 02:55:17;;;;;;;11.60;8.90;;;;;;;10.57;74.56;99666.07;108517;1255;68719;-78
2023/10/30 02:57:46;;;;;;;15.00;8.90;;;;;;;10.53;74.38;99669.17;108712;1254;71428;-78
2023/10/30 03:00:13;;;;;;;15.30;10.30;;;;;;;10.50;74.52;99669.72;109147;1253;59217;-77
2023/10/30 03:02:41;;;;;;;15.00;9.10;;;;;;;10.48;74.75;99668.69;108613;1256;59250;-79
2023/10/30 03:05:08;;;;;;;13.00;8.10;;;;;;;10.48;74.64;99665.30;108934;1251;72484;-77
2023/10/30 03:07:36;;;;;;;13.40;8.50;;;;;;;10.55;74.30;99664.52;109013;1254;67722;-81
2023/10/30 03:10:04;;;;;;;13.00;9.10;;;;;;;10.56;74.49;99645.83;109153;1254;71437;-77
2023/10/30 03:12:31;;;;;;;19.70;9.60;;;;;;;10.52;74.47;99640.27;109270;1253;61017;-78
2023/10/30 03:14:59;;;;;;;11.70;8.30;;;;;;;10.47;74.61;99654.25;109070;1252;60462;-78
2023/10/30 03:17:26;;;;;;;13.40;8.50;;;;;;;10.42;74.87;99654.21;109050;1255;73802;-77
2023/10/30 03:19:54;;;;;;;12.30;7.60;;;;;;;10.47;74.74;99650.73;108733;1254;69127;-76
2023/10/30 03:22:23;;;;;;;11.60;8.40;;;;;;;10.53;74.64;99656.92;108508;1255;71444;-76
2023/10/30 03:24:50;;;;;;;14.90;8.50;;;;;;;10.49;74.63;99663.70;107950;1254;60283;-76
2023/10/30 03:27:18;;;;;;;16.20;9.00;;;;;;;10.44;74.76;99657.88;108325;1258;60441;-75
2023/10/30 03:29:46;;;;;;;13.80;8.50;;;;;;;10.41;74.80;99662.69;107169;1257;72965;-72
2023/10/30 03:32:15;;;;;;;11.90;7.50;;;;;;;10.39;74.99;99654.72;107147;1254;69194;-74
2023/10/30 03:34:44;;;;;;;13.70;8.20;;;;;;;10.46;74.84;99654.84;108787;1254;71448;-77
2023/10/30 03:37:11;;;;;;;14.00;8.70;;;;;;;10.53;74.63;99654.40;107858;1253;60404;-75
2023/10/30 03:39:39;;;;;;;13.20;8.70;;;;;;;10.52;74.40;99656.70;107681;1259;60421;-78
2023/10/30 03:42:07;;;;;;;12.70;8.50;;;;;;;10.51;74.66;99652.05;109013;1254;72522;-80
2023/10/30 03:44:34;;;;;;;16.30;8.70;;;;;;;10.49;74.68;99655.20;109158;1254;69056;-79
2023/10/30 03:47:02;;;;;;;10.90;7.20;;;;;;;10.50;74.91;99643.45;109301;1253;71055;-78
2023/10/30 03:49:29;;;;;;;12.50;8.20;;;;;;;10.62;74.38;99642.81;109328;1254;58880;-79
2023/10/30 03:51:57;;;;;;;13.70;8.50;;;;;;;10.67;74.12;99644.63;108698;1252;59082;-78
2023/10/30 03:54:25;;;;;;;14.00;8.30;;;;;;;10.68;73.97;99641.64;109386;1254;72594;-75
2023/10/30 03:56:53;;;;;;;12.10;7.90;;;;;;;10.68;74.14;99638.30;108092;1258;69256;-76
2023/10/30 03:59:20;;;;;;;14.40;8.90;;;;;;;10.67;73.91;99639.75;108300;1256;71184;-76
2023/10/30 04:01:47;;;;;;;11.70;7.40;;;;;;;10.69;73.90;99636.02;107838;1254;60406;-75
2023/10/30 04:04:15;;;;;;;14.00;8.30;;;;;;;10.79;73.61;99638.94;107037;1254;427642;-74
2023/10/30 04:08:01;;;;;;;10.40;7.80;;;;;;;10.82;73.52;99632.79;104145;1292;599402;-74
2023/10/30 04:10:29;;;;;;;12.60;8.30;;;;;;;10.77;73.39;99639.59;105729;1272;60031;-75
2023/10/30 04:12:57;;;;;;;11.40;8.10;;;;;;;10.74;73.50;99641.89;107214;1266;60137;-78
2023/10/30 04:15:24;;;;;;;11.50;7.80;;;;;;;10.70;73.65;99631.27;105922;1266;71246;-73
2023/10/30 04:17:54;;;;;;;17.10;10.70;;;;;;;10.71;73.72;99632.56;106044;1266;68851;-78
2023/10/30 04:20:23;;;;;;;13.00;8.10;;;;;;;10.77;73.56;99632.45;106635;1267;71418;-78
2023/10/30 04:22:51;;;;;;;13.40;8.40;;;;;;;10.74;73.47;99632.95;106815;1264;186877;-75
2023/10/30 04:25:19;;;;;;;15.20;9.50;;;;;;;10.70;73.72;99632.58;106262;1264;60093;-75
2023/10/30 04:27:47;;;;;;;15.50;9.10;;;;;;;10.66;73.85;99632.68;106409;1266;71102;-76
2023/10/30 04:30:14;;;;;;;12.50;8.20;;;;;;;10.65;73.84;99630.29;106625;1264;69064;-73
2023/10/30 04:32:42;;;;;;;18.90;9.60;;;;;;;10.69;73.67;99627.85;106576;1265;72789;-73
2023/10/30 04:35:09;;;;;;;17.80;9.00;;;;;;;10.76;73.35;99623.55;106124;1266;59546;-74
2023/10/30 04:37:37;;;;;;;16.20;8.90;;;;;;;10.75;73.53;99628.26;106462;1264;59636;-74
2023/10/30 04:40:05;;;;;;;16.10;8.90;;;;;;;10.72;73.76;99624.67;106975;1264;71592;-75
2023/10/30 04:42:32;;;;;;;15.70;9.10;;;;;;;10.69;73.85;99626.70;107114;1264;68822;-79
2023/10/30 04:45:00;;;;;;;14.90;8.70;;;;;;;10.67;73.71;99616.67;107518;1266;71239;-78
2023/10/30 04:47:27;;;;;;;13.20;8.50;;;;;;;10.71;73.64;99620.77;106886;1266;59791;-77
2023/10/30 04:49:55;;;;;;;11.50;7.60;;;;;;;10.76;73.47;99620.16;106745;1264;60143;-76
2023/10/30 04:52:25;;;;;;;12.90;8.70;;;;;;;10.73;73.48;99621.26;106800;1265;72128;-75
2023/10/30 04:54:53;;;;;;;12.40;8.10;;;;;;;10.69;73.64;99617.96;107025;1263;69040;-76
2023/10/30 04:57:20;;;;;;;12.10;7.60;;;;;;;10.66;73.71;99616.52;106550;1266;72753;-75
2023/10/30 04:59:47;;;;;;;10.90;7.10;;;;;;;10.66;73.50;99610.19;106379;1270;60432;-75
2023/10/30 05:02:15;;;;;;;9.30;6.80;;;;;;;10.74;73.67;99611.76;108195;1264;59480;-81
2023/10/30 05:04:43;;;;;;;11.50;8.50;;;;;;;10.75;73.70;99608.10;108739;1263;71515;-81
2023/10/30 05:07:10;;;;;;;13.50;7.80;;;;;;;10.71;73.78;99610.81;108708;1265;69026;-81
2023/10/30 05:09:54;;;;;;;9.90;7.40;;;;;;;10.72;73.88;99612.89;106532;1288;599859;-82
2023/10/30 05:12:21;;;;;;;9.80;7.40;;;;;;;10.69;74.01;99620.09;108981;1260;58814;-81
2023/10/30 05:14:48;;;;;;;14.20;7.30;;;;;;;10.71;73.74;99612.80;109022;1263;58813;-82
2023/10/30 05:17:16;;;;;;;9.40;7.20;;;;;;;10.81;73.40;99612.39;109078;1259;73095;-83
2023/10/30 05:19:43;;;;;;;11.80;7.80;;;;;;;10.83;73.25;99620.50;109118;1260;68738;-82
2023/10/30 05:22:11;;;;;;;11.60;7.90;;;;;;;10.80;73.06;99620.73;109141;1259;71058;-83
2023/10/30 05:24:38;;;;;;;12.60;7.50;;;;;;;10.78;73.34;99623.14;109041;1256;186669;-83
2023/10/30 05:27:06;;;;;;;9.90;7.70;;;;;;;10.76;73.40;99627.27;109062;1257;59879;-82
2023/10/30 05:29:33;;;;;;;11.30;7.10;;;;;;;10.77;73.46;99617.27;109159;1256;70635;-84
2023/10/30 05:32:06;;;;;;;11.50;7.20;;;;;;;10.85;73.08;99621.11;109267;1256;68703;-82
2023/10/30 05:34:34;;;;;;;11.30;7.90;;;;;;;10.86;73.07;99617.79;109219;1257;71170;-80
2023/10/30 05:37:04;;;;;;;11.50;7.70;;;;;;;10.84;73.03;99615.98;109519;1253;58823;-81
2023/10/30 05:39:32;;;;;;;13.50;8.30;;;;;;;10.81;73.25;99620.33;109400;1253;59266;-83
2023/10/30 05:41:59;;;;;;;11.50;7.90;;;;;;;10.79;73.34;99620.54;109214;1252;72145;-82
2023/10/30 05:44:30;;;;;;;11.30;6.50;;;;;;;10.79;73.46;99627.16;108671;1253;68069;-80
2023/10/30 05:46:58;;;;;;;12.90;8.30;;;;;;;10.88;73.27;99628.58;108703;1251;71466;-81
2023/10/30 05:49:25;;;;;;;13.00;8.10;;;;;;;10.93;73.09;99631.78;109439;1251;58770;-81
2023/10/30 05:51:53;;;;;;;16.00;8.40;;;;;;;10.91;73.01;99628.43;109392;1252;59042;-84
2023/10/30 05:54:22;;;;;;;18.00;9.40;;;;;;;10.90;72.95;99629.27;108922;1254;71765;-82
2023/10/30 05:56:49;;;;;;;14.50;8.70;;;;;;;10.90;72.87;99629.83;109027;1253;69283;-82
2023/10/30 05:59:17;;;;;;;16.00;9.00;;;;;;;10.91;73.00;99637.23;108920;1253;73697;-76
2023/10/30 06:01:47;;;;;;;18.50;9.40;;;;;;;11.03;72.75;99631.91;108940;1252;60419;-72
2023/10/30 06:04:15;;;;;;;17.50;9.20;;;;;;;11.17;72.35;99629.73;108744;1252;58728;-78
2023/10/30 06:06:42;;;;;;;16.60;9.80;;;;;;;11.24;71.94;99633.82;109211;1256;70486;-80
2023/10/30 06:09:10;;;;;;;18.20;10.20;;;;;;;11.28;71.78;99631.20;109332;1253;69154;-80
2023/10/30 06:11:37;;;;;;;20.00;10.30;;;;;;;11.34;71.71;99639.50;108941;1253;71388;-78
2023/10/30 06:14:05;;;;;;;16.80;9.70;;;;;;;11.40;71.40;99627.84;108710;1254;59853;-78
2023/10/30 06:16:32;;;;;;;18.00;9.80;;;;;;;11.46;71.23;99631.75;108815;1252;60923;-79
2023/10/30 06:19:01;;;;;;;18.40;10.50;;;;;;;11.51;70.90;99627.27;108722;1252;73136;-79
2023/10/30 06:21:29;;;;;;;19.10;8.80;;;;;;;11.57;70.79;99622.49;108881;1254;68903;-76
2023/10/30 06:23:56;;;;;;;21.00;8.60;;;;;;;11.69;70.36;99620.58;108717;1253;72483;-75
2023/10/30 06:26:24;;;;;;;17.70;9.50;;;;;;;11.87;69.69;99619.77;108772;1254;59503;-76
2023/10/30 06:28:51;;;;;;;16.40;8.70;;;;;;;11.94;69.45;99620.66;108715;1253;61102;-78
2023/10/30 06:31:19;;;;;;;17.50;9.00;;;;;;;12.01;69.28;99616.39;108796;1253;71790;-76
2023/10/30 06:33:46;;;;;;;16.00;9.00;;;;;;;12.08;69.00;99623.14;108900;1253;68743;-76
2023/10/30 06:36:14;;;;;;;18.50;10.10;;;;;;;12.15;68.65;99622.67;108896;1253;70361;-77
2023/10/30 06:38:42;;;;;;;14.80;8.80;;;;;;;12.24;68.47;99620.66;108985;1252;59463;-77
2023/10/30 06:41:09;;;;;;;16.40;9.40;;;;;;;12.31;68.18;99616.44;108868;1252;58872;-77
2023/10/30 06:43:38;;;;;;;15.40;9.00;;;;;;;12.36;67.80;99629.05;108704;1253;71995;-76
2023/10/30 06:46:06;;;;;;;18.70;9.70;;;;;;;12.41;67.66;99627.23;108615;1253;68770;-75
2023/10/30 06:48:34;;;;;;;19.20;10.20;;;;;;;12.45;67.73;99627.03;108545;1254;71210;-77
2023/10/30 06:51:01;;;;;;;17.10;10.50;;;;;;;12.48;67.56;99625.23;107112;1254;59730;-77
2023/10/30 06:53:28;;;;;;;20.40;9.50;;;;;;;12.52;67.34;99623.46;106098;1259;59616;-79
2023/10/30 06:55:56;;;;;;;18.50;9.20;;;;;;;12.56;67.15;99620.11;106472;1252;73083;-77
2023/10/30 06:58:24;;;;;;;15.30;8.40;;;;;;;12.58;67.05;99619.15;106413;1254;70445;-84
2023/10/30 07:00:51;;;;;;;17.20;9.20;;;;;;;12.61;66.97;99622.10;106535;1256;71862;-79
2023/10/30 07:03:20;;;;;;;18.00;9.80;;;;;;;12.63;66.88;99621.83;106479;1254;59746;-81
2023/10/30 07:05:47;;;;;;;17.40;9.40;;;;;;;12.65;66.92;99623.88;106791;1252;60451;-81
2023/10/30 07:08:15;;;;;;;20.10;9.90;;;;;;;12.66;66.93;99626.94;106940;1253;72518;-83
2023/10/30 07:10:42;;;;;;;17.30;9.70;;;;;;;12.70;66.85;99616.20;106304;1254;70439;-82
2023/10/30 07:13:10;;;;;;;17.90;10.30;;;;;;;12.74;66.82;99615.35;106091;1254;71775;-81
2023/10/30 07:15:37;;;;;;;20.80;10.20;;;;;;;12.77;66.37;99628.59;106169;1254;60178;-83
2023/10/30 07:18:04;;;;;;;14.60;9.10;;;;;;;12.85;66.47;99617.63;106211;1254;60018;-81
2023/10/30 07:20:32;;;;;;;18.50;10.80;;;;;;;12.92;66.16;99619.88;106295;1254;71814;-81
2023/10/30 07:23:02;;;;;;;17.80;9.90;;;;;;;12.99;66.20;99620.98;106735;1254;68664;-79
2023/10/30 07:25:29;;;;;;;19.10;7.90;;;;;;;13.06;66.21;99619.52;107685;1254;72776;-81
2023/10/30 07:27:57;;;;;;;15.70;8.20;;;;;;;13.11;65.59;99615.30;107105;1252;60018;-78
2023/10/30 07:30:26;;;;;;;17.90;9.30;;;;;;;13.20;65.61;99620.13;106453;1253;59986;-80
2023/10/30 07:32:54;;;;;;;17.70;9.30;;;;;;;13.27;65.40;99612.11;106009;1254;71894;-81
2023/10/30 07:35:23;;;;;;;22.10;10.10;;;;;;;13.33;65.15;99616.77;106087;1254;70295;-80
2023/10/30 07:37:51;;;;;;;14.40;9.30;;;;;;;13.36;64.94;99614.89;106215;1253;72717;-82
2023/10/30 07:40:19;;;;;;;19.20;10.50;;;;;;;13.40;64.94;99610.52;105980;1253;60104;-81
2023/10/30 07:42:47;;;;;;;21.00;11.50;;;;;;;13.44;65.00;99619.14;105994;1253;59502;-80
2023/10/30 07:45:14;;;;;;;22.80;10.80;;;;;;;13.49;65.02;99616.04;105964;1254;71535;-82
2023/10/30 07:47:42;;;;;;;23.80;10.30;;;;;;;13.56;64.90;99617.50;105958;1253;72733;-81
2023/10/30 07:50:11;;;;;;;22.80;10.20;;;;;;;13.63;64.68;99616.48;106131;1253;71374;-81
2023/10/30 07:52:39;;;;;;;19.80;9.80;;;;;;;13.69;64.68;99617.42;106074;1254;62249;-79
2023/10/30 07:55:10;;;;;;;17.80;9.20;;;;;;;13.74;64.53;99616.80;105954;1256;59611;-82
2023/10/30 07:57:37;;;;;;;16.40;9.60;;;;;;;13.78;64.08;99620.62;105930;1256;73049;-79
2023/10/30 08:00:07;;;;;;;14.30;8.30;;;;;;;13.82;64.14;99614.05;105939;1254;70294;-81
2023/10/30 08:02:39;;;;;;;11.70;7.10;;;;;;;13.86;63.57;99625.30;105984;1256;72402;-81
2023/10/30 08:05:07;;;;;;;14.80;7.80;;;;;;;13.91;63.64;99622.66;106102;1254;59685;-81
2023/10/30 08:07:36;;;;;;;13.80;7.80;;;;;;;13.97;63.45;99619.96;106569;1253;59615;-82
2023/10/30 08:10:04;;;;;;;12.50;6.80;;;;;;;14.03;63.14;99627.60;106407;1254;72304;-81
2023/10/30 08:12:35;;;;;;;12.80;7.60;;;;;;;14.07;62.92;99626.00;105974;1256;68754;-77
2023/10/30 08:15:03;;;;;;;10.90;6.60;;;;;;;14.11;63.09;99621.46;106063;1254;72663;-81
2023/10/30 08:17:30;;;;;;;11.00;6.40;;;;;;;14.14;62.89;99622.10;107058;1254;59860;-81
2023/10/30 08:19:58;;;;;;;9.90;6.10;;;;;;;14.19;62.74;99624.36;108261;1253;59274;-83
2023/10/30 08:22:25;;;;;;;9.40;5.60;;;;;;;14.24;62.53;99622.63;107930;1253;71766;-82
2023/10/30 08:24:53;;;;;;;9.90;5.40;;;;;;;14.29;62.66;99617.77;106174;1254;70431;-82
2023/10/30 08:27:21;;;;;;;10.60;6.40;;;;;;;14.32;62.42;99622.92;105954;1259;71257;-82
2023/10/30 08:29:49;;;;;;;8.70;5.60;;;;;;;14.35;62.53;99619.24;105978;1254;60348;-82
2023/10/30 08:32:18;;;;;;;7.50;5.90;;;;;;;14.40;62.52;99616.60;105976;1259;59932;-81
2023/10/30 08:34:46;;;;;;;9.00;5.50;;;;;;;14.44;62.16;99623.95;106360;1254;71606;-82
2023/10/30 08:37:15;;;;;;;9.80;5.80;;;;;;;14.49;62.09;99610.83;106318;1253;70515;-81
2023/10/30 08:39:42;;;;;;;7.30;5.50;;;;;;;14.55;61.90;99614.15;106061;1257;71171;-80
2023/10/30 08:42:10;;;;;;;12.80;6.40;;;;;;;14.61;61.63;99614.78;106000;1257;59818;-80
2023/10/30 08:44:38;;;;;;;9.70;5.70;;;;;;;14.68;61.85;99609.98;105815;1259;60034;-78
2023/10/30 08:47:06;;;;;;;9.60;5.60;;;;;;;14.75;61.49;99601.36;105777;1259;73052;-81
2023/10/30 08:49:33;;;;;;;11.20;6.20;;;;;;;14.82;61.53;99606.17;106061;1254;69171;-81
2023/10/30 08:52:01;;;;;;;12.70;6.30;;;;;;;14.86;61.21;99611.00;105999;1254;72456;-79
2023/10/30 08:54:31;;;;;;;13.00;6.50;;;;;;;14.88;61.42;99601.55;106065;1256;59887;-80
2023/10/30 08:56:58;;;;;;;11.20;6.70;;;;;;;14.88;60.91;99606.28;106344;1252;59522;-80
2023/10/30 08:59:29;;;;;;;11.90;6.70;;;;;;;14.89;61.02;99599.24;106433;1254;74049;-77
2023/10/30 09:01:57;;;;;;;11.10;6.40;;;;;;;14.90;60.96;99591.95;106150;1254;71502;-81
2023/10/30 09:04:25;;;;;;;9.60;5.80;;;;;;;14.94;61.11;99598.40;107012;1253;71454;-84
2023/10/30 09:06:55;;;;;;;9.60;5.70;;;;;;;14.99;60.74;99600.31;108778;1253;59279;-85
2023/10/30 09:09:23;;;;;;;8.40;5.60;;;;;;;15.06;60.53;99600.50;106548;1254;59857;-84
2023/10/30 09:11:50;;;;;;;7.80;5.40;;;;;;;15.35;60.22;99593.58;107660;1256;73222;-84
2023/10/30 09:14:18;;;;;;;9.00;5.50;;;;;;;15.77;59.44;99587.77;106524;1254;68663;-80
2023/10/30 09:16:48;;;;;;;6.50;5.10;;;;;;;16.11;58.57;99585.61;106134;1256;72014;-79
2023/10/30 09:19:31;;;;;;;9.00;5.60;;;;;;;16.33;57.46;99591.92;106373;1254;60475;-82
2023/10/30 09:21:59;;;;;;;8.60;5.40;;;;;;;16.61;57.54;99587.56;105966;1254;60513;-83
2023/10/30 09:24:27;;;;;;;7.60;5.30;;;;;;;17.09;56.69;99585.41;106048;1253;72828;-82
2023/10/30 09:26:54;;;;;;;9.70;5.70;;;;;;;17.67;55.47;99584.55;106010;1256;70105;-80
2023/10/30 09:29:24;;;;;;;9.30;5.50;;;;;;;18.16;54.13;99576.07;105856;1256;72080;-77
2023/10/30 09:31:52;;;;;;;10.40;5.60;;;;;;;18.36;53.14;99567.31;106397;1253;60271;-84
2023/10/30 09:34:21;;;;;;;6.80;5.20;;;;;;;18.40;52.66;99569.00;108373;1252;60427;-84
2023/10/30 09:36:51;;;;;;;9.30;6.30;;;;;;;18.47;52.53;99569.73;108552;1252;72798;-83
2023/10/30 09:39:21;;;;;;;8.50;5.60;;;;;;;18.68;52.55;99572.66;107848;1253;69031;-80
2023/10/30 09:41:49;;;;;;;8.20;5.60;;;;;;;19.06;51.81;99572.87;108180;1253;71435;-78
2023/10/30 09:44:17;;;;;;;8.30;5.60;;;;;;;19.31;50.53;99566.76;106092;1254;59936;-80
2023/10/30 09:46:44;;;;;;;10.00;7.10;;;;;;;19.33;50.60;99562.88;106077;1254;61162;-81
2023/10/30 09:49:13;;;;;;;10.90;6.20;;;;;;;19.29;50.70;99564.45;105980;1254;73681;-82
2023/10/30 09:51:43;;;;;;;10.50;5.30;;;;;;;19.16;50.75;99559.64;106213;1253;70431;-81
2023/10/30 09:54:12;;;;;;;13.10;5.60;;;;;;;18.94;50.90;99551.90;106828;1257;71547;-84
2023/10/30 09:56:39;;;;;;;7.70;4.90;;;;;;;18.78;51.43;99553.20;106570;1258;60543;-84
2023/10/30 09:59:09;;;;;;;8.80;5.50;;;;;;;18.63;51.45;99553.80;106681;1254;59848;-84
2023/10/30 10:01:37;;;;;;;7.90;5.30;;;;;;;18.48;51.87;99548.42;107600;1259;74136;-84
2023/10/30 10:04:05;;;;;;;8.60;5.60;;;;;;;18.50;52.13;99556.84;108314;1253;72286;-84
2023/10/30 10:06:32;;;;;;;9.00;5.70;;;;;;;18.54;51.93;99567.62;107489;1254;71489;-84
2023/10/30 10:09:01;;;;;;;10.10;5.80;;;;;;;18.54;51.90;99560.20;106388;1256;60501;-81
2023/10/30 10:11:33;;;;;;;8.10;5.80;;;;;;;18.55;52.38;99562.45;106661;1253;60333;-78
2023/10/30 10:14:01;;;;;;;10.20;6.30;;;;;;;18.80;51.83;99563.04;106106;1256;73835;-85
2023/10/30 10:16:35;;;;;;;12.60;6.20;;;;;;;19.22;51.31;99547.13;106341;1256;71036;-81
2023/10/30 10:19:22;;;;;;;11.20;7.20;;;;;;;19.72;50.69;99546.83;105952;1258;71861;-81
2023/10/30 10:21:50;;;;;;;10.80;6.20;;;;;;;20.38;49.47;99541.17;106354;1256;59261;-83
2023/10/30 10:24:37;;;;;;;13.00;7.60;;;;;;;21.02;48.39;99547.70;106154;1254;60536;-83
2023/10/30 10:27:06;;;;;;;11.20;7.20;;;;;;;21.32;47.29;99537.05;106649;1254;72265;-84
2023/10/30 10:29:35;;;;;;;9.90;6.70;;;;;;;21.22;47.34;99541.91;106112;1254;72113;-82
2023/10/30 10:32:03;;;;;;;11.50;8.00;;;;;;;21.04;47.51;99538.02;105966;1256;72436;-78
2023/10/30 10:34:32;;;;;;;10.80;7.60;;;;;;;21.02;47.60;99532.86;105928;1253;60543;-81
2023/10/30 10:37:01;;;;;;;12.20;7.70;;;;;;;21.35;47.51;99525.94;106251;1257;60960;-82
2023/10/30 10:39:53;;;;;;;11.90;7.40;;;;;;;21.88;46.68;99526.36;106037;1254;75957;-83
2023/10/30 10:42:22;;;;;;;13.40;7.90;;;;;;;22.45;45.81;99520.35;106260;1256;69413;-84
2023/10/30 10:44:51;;;;;;;16.90;8.20;;;;;;;22.95;44.76;99520.61;106057;1258;70474;-80
2023/10/30 10:47:20;;;;;;;13.20;7.70;;;;;;;23.26;43.76;99528.52;106844;1253;62486;-82
2023/10/30 10:49:47;;;;;;;9.00;5.70;;;;;;;23.46;43.24;99520.17;108735;1253;59785;-83
2023/10/30 10:52:17;;;;;;;14.70;7.20;;;;;;;23.60;43.22;99517.11;108724;1253;74752;-82
2023/10/30 10:55:05;;;;;;;10.10;6.90;;;;;;;23.90;43.23;99511.21;107911;1254;70237;-84
2023/10/30 10:57:39;;;;;;;9.40;7.10;;;;;;;24.48;42.39;99508.96;106538;1257;71631;-82
2023/10/30 11:00:07;;;;;;;11.30;7.00;;;;;;;25.09;41.36;99510.84;106452;1254;60518;-85
2023/10/30 11:02:37;;;;;;;10.60;7.00;;;;;;;25.63;40.44;99513.98;106345;1253;60307;-82
2023/10/30 11:05:06;;;;;;;7.40;5.30;;;;;;;26.06;39.75;99516.82;106850;1253;72854;-85
2023/10/30 11:07:42;;;;;;;12.70;6.80;;;;;;;26.48;38.86;99504.48;107742;1253;72832;-85
2023/10/30 11:10:20;;;;;;;10.40;6.60;;;;;;;26.92;38.70;99503.26;106848;1254;72760;-84
2023/10/30 11:13:12;;;;;;;10.00;6.60;;;;;;;27.44;37.39;99502.79;107502;1253;60341;-83
2023/10/30 11:15:52;;;;;;;11.30;5.60;;;;;;;27.83;37.11;99496.16;108029;1256;60348;-81
2023/10/30 11:18:24;;;;;;;10.00;6.50;;;;;;;27.93;36.48;99491.98;106134;1259;74432;-83
2023/10/30 11:21:21;;;;;;;10.80;6.90;;;;;;;28.00;36.38;99491.75;105728;1261;69267;-81
2023/10/30 11:23:57;;;;;;;7.60;5.60;;;;;;;27.97;36.09;99496.58;106064;1257;73261;-83